Pagina principale
METAR-TAF:

METAR-TAF

Aeroporti :

Aeroporto di Londra-Ashford

Lydd, Inghilterra

latitudine: 50-57N, longitudine: 000-56E, altezza: 3 m

Osservazione

Il bollettino è stato emesso 43 minuti fa, alle 06:20 UTC
Vento 20 kt da est/nord-est
Temperature 15°C
Umidità 88%
Pressione 1028 hPa
Visibilità 10 km o più

METAR: EGMD 270620Z AUTO 06020KT 9999 OVC010/// 15/13 Q1028

Ora: 08:03 (07:03 UTC)

Previsione

Il bollettino è stato emesso 1 ora e 57 minuti fa, alle 05:06 UTC
Previsione valida dal 27 alle 06 UTC al 27 alle 15 UTC
Vento 18 kt da nord-est
Visibilità 10 km o più
Nuvoloso ad un'altezza di 1000 ft
Temporaneamente
dal 27 alle 06 UTC al 27 alle 15 UTC
Vento 20 kt da est/nord-est con raffiche fino a 30 kt
Evoluzione graduale
dal 27 alle 07 UTC al 27 alle 10 UTC
Nubi sparse ad un'altezza di 1600 ft

TAF: EGMD 270506Z 2706/2715 05018KT 9999 BKN010 TEMPO 2706/2715 06020G30KT BECMG 2707/2710 SCT016

Osservazioni e previsioni meteorologiche di più di 4000 aeroporti (messaggi METAR e TAF).

Le stazioni disponibili sono rappresentate dai dischi gialli e rossi sulla carta.

Puntare il mouse per vedere il nome della stazione.

Clicca sopra per visualizzare le osservazioni e previsioni meteorologiche.

Per cambiare la mappa : fare clic sui pulsanti verdi con una croce nera per ingrandire, il pulsante verde con un trattino per diminuire, o sulla freccia verde per le mappe adiacenti.


METAR-TAF: